Time;durP1;ratioP1;P1;durP2;ratioP2;P2;SDS_P1;SDS_P2;PMS_P1;PMS_P2;Temp;Humidity;BMP_temperature;BMP_pressure;BME280_temperature;BME280_humidity;BME280_pressure;Samples;Min_cycle;Max_cycle;Signal;HPM_P1;HPM_P2
2022/07/19 00:00:08;;;;;;;7.63;6.10;;;22.60;85.10;;;;;;4975925;28;92510;-71
2022/07/19 00:02:38;;;;;;;6.03;5.28;;;22.60;85.10;;;;;;4977162;28;93034;-71
2022/07/19 00:05:06;;;;;;;6.20;5.38;;;22.50;85.40;;;;;;4975722;28;96789;-71
2022/07/19 00:07:34;;;;;;;7.18;6.15;;;22.50;85.30;;;;;;4959069;28;97896;-71
2022/07/19 00:10:03;;;;;;;7.20;6.30;;;22.50;85.50;;;;;;4976018;28;92469;-71
2022/07/19 00:12:30;;;;;;;7.10;6.40;;;22.40;85.60;;;;;;4958989;28;92448;-71
2022/07/19 00:14:57;;;;;;;6.43;5.90;;;22.40;85.80;;;;;;4975347;28;95619;-71
2022/07/19 00:17:24;;;;;;;6.28;5.68;;;22.30;85.70;;;;;;4974839;28;94092;-71
2022/07/19 00:19:51;;;;;;;5.95;5.45;;;22.30;85.70;;;;;;4975631;28;92459;-71
2022/07/19 00:22:17;;;;;;;6.82;6.22;;;22.30;85.60;;;;;;4977435;28;92076;-71
2022/07/19 00:24:44;;;;;;;7.00;6.30;;;22.30;85.60;;;;;;4975322;28;93335;-71
2022/07/19 00:27:11;;;;;;;7.00;6.30;;;22.30;85.40;;;;;;4976662;28;94978;-71
2022/07/19 00:29:38;;;;;;;7.60;5.38;;;22.30;85.50;;;;;;4990840;28;95484;-71
2022/07/19 00:32:06;;;;;;;7.22;6.53;;;22.20;85.40;;;;;;4976759;28;92506;-71
2022/07/19 00:34:33;;;;;;;7.13;6.43;;;22.20;85.40;;;;;;4973843;28;110220;-71
2022/07/19 00:37:00;;;;;;;6.00;5.50;;;22.20;85.30;;;;;;4976470;28;93020;-71
2022/07/19 00:39:27;;;;;;;6.40;5.07;;;22.20;85.10;;;;;;4975458;28;92873;-71
2022/07/19 00:41:54;;;;;;;6.68;6.15;;;22.10;85.00;;;;;;4991798;28;92543;-71
2022/07/19 00:44:22;;;;;;;7.53;6.75;;;22.10;85.10;;;;;;4976332;28;93286;-71
2022/07/19 00:46:49;;;;;;;7.40;5.43;;;22.10;85.10;;;;;;4991704;28;96057;-71
2022/07/19 00:49:16;;;;;;;6.57;5.85;;;22.10;85.00;;;;;;4975204;28;92824;-71
2022/07/19 00:51:45;;;;;;;6.68;6.07;;;22.00;85.00;;;;;;4976250;28;92519;-70
2022/07/19 00:54:14;;;;;;;5.80;5.30;;;22.00;85.10;;;;;;4990247;28;96167;-70
2022/07/19 00:56:42;;;;;;;6.85;6.13;;;22.00;85.20;;;;;;4975640;28;95309;-71
2022/07/19 00:59:10;;;;;;;5.43;4.93;;;22.00;85.40;;;;;;4975176;28;93066;-70
2022/07/19 01:01:37;;;;;;;6.95;6.15;;;21.90;85.50;;;;;;4975977;28;92532;-71
2022/07/19 01:04:05;;;;;;;6.40;5.80;;;21.90;85.60;;;;;;4975524;28;93313;-71
2022/07/19 01:06:32;;;;;;;9.30;7.38;;;21.90;85.80;;;;;;4974677;28;92884;-71
2022/07/19 01:08:59;;;;;;;7.38;6.53;;;21.90;86.50;;;;;;4974650;28;92511;-71
2022/07/19 01:11:26;;;;;;;8.70;6.47;;;21.80;85.90;;;;;;4976539;28;91704;-71
2022/07/19 01:13:53;;;;;;;7.72;5.50;;;21.80;85.90;;;;;;4975673;28;93268;-70
2022/07/19 01:16:19;;;;;;;8.93;7.15;;;21.80;85.90;;;;;;4974500;28;95477;-71
2022/07/19 01:18:46;;;;;;;7.63;6.75;;;21.80;85.90;;;;;;4990046;28;94738;-70
2022/07/19 01:21:22;;;;;;;6.95;6.25;;;21.80;85.90;;;;;;4974893;28;92569;-71
2022/07/19 01:23:50;;;;;;;7.75;6.07;;;21.70;85.50;;;;;;4975670;28;93279;-71
2022/07/19 01:26:17;;;;;;;6.65;5.63;;;21.70;86.10;;;;;;4975593;28;92924;-71
2022/07/19 01:28:46;;;;;;;7.65;5.32;;;21.70;86.80;;;;;;4974295;28;92459;-70
2022/07/19 01:31:13;;;;;;;6.85;6.15;;;21.70;86.80;;;;;;4975816;28;92434;-71
2022/07/19 01:33:44;;;;;;;8.10;6.32;;;21.70;86.60;;;;;;4974183;28;95923;-70
2022/07/19 01:36:11;;;;;;;8.65;7.68;;;21.60;86.80;;;;;;4976154;28;93091;-71
2022/07/19 01:38:38;;;;;;;7.40;6.32;;;21.60;87.10;;;;;;4990851;28;92506;-71
2022/07/19 01:41:06;;;;;;;6.88;6.20;;;21.60;87.20;;;;;;4974635;28;92508;-71
2022/07/19 01:43:34;;;;;;;7.75;6.97;;;21.50;87.10;;;;;;4989316;28;95687;-70
2022/07/19 01:46:02;;;;;;;7.63;6.40;;;21.50;87.00;;;;;;4974435;28;94224;-71
2022/07/19 01:48:29;;;;;;;8.15;7.35;;;21.50;86.90;;;;;;4976015;28;92987;-71
2022/07/19 01:50:58;;;;;;;7.60;6.85;;;21.50;87.00;;;;;;4974061;28;92509;-71
2022/07/19 01:53:25;;;;;;;6.78;6.07;;;21.40;87.10;;;;;;4975517;28;93169;-70
2022/07/19 01:55:52;;;;;;;7.82;6.97;;;21.40;87.30;;;;;;4974169;28;93020;-71
2022/07/19 01:58:19;;;;;;;8.48;7.68;;;21.40;87.50;;;;;;4974160;28;92485;-70
2022/07/19 02:00:46;;;;;;;11.00;6.57;;;21.40;87.50;;;;;;4974310;28;91787;-71
2022/07/19 02:03:13;;;;;;;7.20;6.35;;;21.30;87.30;;;;;;4975019;28;93168;-71
2022/07/19 02:05:40;;;;;;;10.18;7.70;;;21.30;87.30;;;;;;4975329;28;93089;-71
2022/07/19 02:08:07;;;;;;;7.68;6.43;;;21.30;87.40;;;;;;4974307;28;94776;-70
2022/07/19 02:10:34;;;;;;;9.43;6.70;;;21.20;87.90;;;;;;4975456;28;92461;-70
2022/07/19 02:13:01;;;;;;;6.80;5.80;;;21.30;88.10;;;;;;4973893;28;93341;-70
2022/07/19 02:15:28;;;;;;;9.52;5.78;;;21.20;88.90;;;;;;4973778;28;95658;-71
2022/07/19 02:17:55;;;;;;;7.50;6.30;;;21.20;89.40;;;;;;4973443;28;92577;-71
2022/07/19 02:20:23;;;;;;;8.23;6.43;;;21.20;89.50;;;;;;4974394;28;107570;-70
2022/07/19 02:22:50;;;;;;;7.60;5.53;;;21.10;89.70;;;;;;4973302;28;95670;-71
2022/07/19 02:25:17;;;;;;;8.18;7.13;;;21.10;90.00;;;;;;4975498;28;93499;-71
2022/07/19 02:27:44;;;;;;;7.35;6.47;;;21.10;90.00;;;;;;4975245;28;92353;-71
2022/07/19 02:30:12;;;;;;;7.63;5.88;;;21.00;90.10;;;;;;4975464;28;92457;-70
2022/07/19 02:32:40;;;;;;;8.80;6.78;;;21.00;90.10;;;;;;4973772;28;95596;-71
2022/07/19 02:35:08;;;;;;;8.23;6.53;;;21.10;90.30;;;;;;4973693;28;97971;-70
2022/07/19 02:37:35;;;;;;;7.10;5.78;;;21.00;90.40;;;;;;4975202;28;92401;-70
2022/07/19 02:40:02;;;;;;;8.75;6.63;;;21.00;90.30;;;;;;4990082;28;92528;-71
2022/07/19 02:42:29;;;;;;;7.25;6.25;;;20.90;90.20;;;;;;4974906;28;93359;-71
2022/07/19 02:44:56;;;;;;;7.68;6.05;;;20.90;90.30;;;;;;4973732;28;93122;-71
2022/07/19 02:47:23;;;;;;;9.45;7.15;;;20.90;90.20;;;;;;4975408;28;92467;-71
2022/07/19 02:49:50;;;;;;;6.75;5.93;;;20.90;90.20;;;;;;4973074;28;108730;-70
2022/07/19 02:52:17;;;;;;;7.43;6.10;;;20.90;90.20;;;;;;4973727;28;95772;-70
2022/07/19 02:54:44;;;;;;;6.88;5.97;;;20.90;90.20;;;;;;4974570;28;93506;-70
2022/07/19 02:57:11;;;;;;;6.20;5.68;;;20.80;90.20;;;;;;4973305;28;95008;-71
2022/07/19 02:59:38;;;;;;;7.63;6.90;;;20.80;90.10;;;;;;4978179;28;92444;-70
2022/07/19 03:02:05;;;;;;;8.60;6.93;;;20.70;90.10;;;;;;4993151;28;93266;-70
2022/07/19 03:04:32;;;;;;;7.43;6.55;;;20.70;90.00;;;;;;4978202;28;92934;-70
2022/07/19 03:06:59;;;;;;;8.63;6.90;;;20.70;90.00;;;;;;4978161;28;92516;-70
2022/07/19 03:09:26;;;;;;;8.40;7.47;;;20.70;90.10;;;;;;4993416;28;92545;-70
2022/07/19 03:11:53;;;;;;;8.15;7.00;;;20.60;90.00;;;;;;4976116;28;95938;-71
2022/07/19 03:14:20;;;;;;;7.70;7.00;;;20.60;90.00;;;;;;4978261;28;93388;-71
2022/07/19 03:16:47;;;;;;;9.43;8.05;;;20.60;90.10;;;;;;4977317;28;93076;-71
2022/07/19 03:19:14;;;;;;;8.75;6.95;;;20.60;90.10;;;;;;4976356;28;92518;-71
2022/07/19 03:21:41;;;;;;;8.98;6.93;;;20.60;90.20;;;;;;4974873;28;95691;-70
2022/07/19 03:24:08;;;;;;;8.82;6.43;;;20.50;90.30;;;;;;4977331;28;95557;-71
2022/07/19 03:26:35;;;;;;;9.85;8.82;;;20.50;90.40;;;;;;4976289;28;92477;-71
2022/07/19 03:29:02;;;;;;;10.07;7.63;;;20.50;90.50;;;;;;4975788;28;101232;-71
2022/07/19 03:31:29;;;;;;;9.57;7.68;;;20.40;90.50;;;;;;4977314;28;93200;-70
2022/07/19 03:33:56;;;;;;;9.07;6.97;;;20.40;90.60;;;;;;4977315;28;93028;-70
2022/07/19 03:36:23;;;;;;;10.73;8.70;;;20.40;90.70;;;;;;4977616;28;92802;-70
2022/07/19 03:38:50;;;;;;;9.18;8.38;;;20.40;90.80;;;;;;4977916;28;91769;-70
2022/07/19 03:41:17;;;;;;;8.57;7.68;;;20.40;90.90;;;;;;4976201;28;93351;-70
2022/07/19 03:43:44;;;;;;;8.18;7.22;;;20.30;90.90;;;;;;4992450;28;93140;-70
2022/07/19 03:46:10;;;;;;;8.68;7.53;;;20.30;90.90;;;;;;4975982;28;95206;-70
2022/07/19 03:48:38;;;;;;;10.85;8.60;;;20.30;90.90;;;;;;4976303;28;92445;-70
2022/07/19 03:51:05;;;;;;;8.50;7.57;;;20.30;91.00;;;;;;4976975;28;93275;-70
2022/07/19 03:53:34;;;;;;;9.07;7.38;;;20.30;91.10;;;;;;4975603;28;95684;-70
2022/07/19 03:56:01;;;;;;;8.52;7.53;;;20.30;91.10;;;;;;4976743;28;92430;-70
2022/07/19 03:58:28;;;;;;;10.50;7.80;;;20.30;91.10;;;;;;4976777;28;92345;-70
2022/07/19 04:00:55;;;;;;;9.95;8.93;;;20.30;91.10;;;;;;4975571;28;93315;-70
2022/07/19 04:03:22;;;;;;;9.98;8.15;;;20.30;91.10;;;;;;4977182;28;92980;-70
2022/07/19 04:05:49;;;;;;;11.30;7.95;;;20.40;90.90;;;;;;4977192;28;92491;-70
2022/07/19 04:08:16;;;;;;;11.95;7.40;;;20.50;91.00;;;;;;4974979;28;92551;-71
2022/07/19 04:10:43;;;;;;;10.18;8.68;;;20.60;90.90;;;;;;4974309;28;98114;-70
2022/07/19 04:13:10;;;;;;;8.93;7.78;;;20.90;90.60;;;;;;4974992;28;98497;-71
2022/07/19 04:15:37;;;;;;;12.40;8.15;;;21.10;90.50;;;;;;4977100;28;92356;-70
2022/07/19 04:18:11;;;;;;;8.57;7.63;;;21.20;90.00;;;;;;4976923;28;92440;-71
2022/07/19 04:20:38;;;;;;;9.65;8.07;;;21.40;89.60;;;;;;4976780;28;93365;-70
2022/07/19 04:23:05;;;;;;;9.73;7.88;;;21.40;89.20;;;;;;4975316;28;95579;-71
2022/07/19 04:25:32;;;;;;;10.82;7.03;;;21.50;89.20;;;;;;4976761;28;92464;-70
2022/07/19 04:27:59;;;;;;;10.38;9.20;;;21.40;89.10;;;;;;4977159;28;91677;-71
2022/07/19 04:30:25;;;;;;;10.55;9.15;;;21.40;88.90;;;;;;4976744;28;93221;-71
2022/07/19 04:32:53;;;;;;;11.18;7.40;;;21.40;89.10;;;;;;4976244;28;103265;-71
2022/07/19 04:35:20;;;;;;;9.77;7.25;;;21.40;88.90;;;;;;4990683;28;94847;-70
2022/07/19 04:37:47;;;;;;;11.20;9.00;;;21.40;88.70;;;;;;4976702;28;92502;-71
2022/07/19 04:40:14;;;;;;;7.47;6.78;;;21.40;88.70;;;;;;4976046;28;93124;-70
2022/07/19 04:42:41;;;;;;;11.57;8.10;;;21.40;88.70;;;;;;4976519;28;92967;-71
2022/07/19 04:45:08;;;;;;;9.20;6.93;;;21.40;88.90;;;;;;4958883;28;92465;-70
2022/07/19 04:47:35;;;;;;;10.20;7.50;;;21.40;88.90;;;;;;4975416;28;92497;-70
2022/07/19 04:50:03;;;;;;;9.00;7.78;;;21.40;88.70;;;;;;4976181;28;93276;-70
2022/07/19 04:52:30;;;;;;;10.35;7.93;;;21.40;88.90;;;;;;4976570;28;93020;-70
2022/07/19 04:54:57;;;;;;;10.38;8.05;;;21.40;89.00;;;;;;4976580;28;92908;-71
2022/07/19 04:57:23;;;;;;;12.52;8.50;;;21.40;89.20;;;;;;4974921;28;92517;-71
2022/07/19 04:59:50;;;;;;;9.93;8.02;;;21.50;89.30;;;;;;4974736;28;95713;-71
2022/07/19 05:02:17;;;;;;;9.15;7.18;;;21.50;89.40;;;;;;4974144;28;97957;-71
2022/07/19 05:04:44;;;;;;;11.70;7.25;;;21.60;89.40;;;;;;4991437;28;93009;-71
2022/07/19 05:07:11;;;;;;;10.82;8.35;;;21.60;89.50;;;;;;4974854;28;92476;-71
2022/07/19 05:09:38;;;;;;;11.70;8.20;;;21.70;89.30;;;;;;4976100;28;93219;-70
2022/07/19 05:12:07;;;;;;;10.82;7.35;;;21.70;89.20;;;;;;4974230;28;94099;-71
2022/07/19 05:14:34;;;;;;;9.38;7.47;;;21.80;89.20;;;;;;4974610;28;92443;-70
2022/07/19 05:17:01;;;;;;;13.95;9.15;;;21.90;89.10;;;;;;4974977;28;91768;-70
2022/07/19 05:19:28;;;;;;;13.80;8.70;;;21.90;89.00;;;;;;4975371;28;93214;-71
2022/07/19 05:21:55;;;;;;;11.45;10.18;;;22.00;88.80;;;;;;4990890;28;92997;-71
2022/07/19 05:24:22;;;;;;;13.38;9.40;;;22.10;89.20;;;;;;4972585;28;94923;-70
2022/07/19 05:26:49;;;;;;;14.38;8.18;;;22.10;88.00;;;;;;4976099;28;92414;-70
2022/07/19 05:29:16;;;;;;;7.93;7.13;;;22.20;86.40;;;;;;4990650;28;93293;-70
2022/07/19 05:31:43;;;;;;;12.68;8.70;;;22.30;85.40;;;;;;4991177;28;92956;-71
2022/07/19 05:34:10;;;;;;;12.85;8.90;;;22.40;84.50;;;;;;4991027;28;92456;-70
2022/07/19 05:36:37;;;;;;;11.13;7.88;;;22.50;84.10;;;;;;4975570;28;92470;-70
2022/07/19 05:39:04;;;;;;;11.43;8.32;;;22.60;83.00;;;;;;4990599;28;92505;-70
2022/07/19 05:41:31;;;;;;;12.18;9.32;;;22.70;82.50;;;;;;4990861;28;95635;-71
2022/07/19 05:43:58;;;;;;;11.48;7.90;;;22.80;81.20;;;;;;4974556;28;92492;-71
2022/07/19 05:46:25;;;;;;;10.50;7.80;;;22.90;80.30;;;;;;4974209;28;92585;-70
2022/07/19 05:48:52;;;;;;;11.35;7.80;;;23.10;79.70;;;;;;4974443;28;95560;-71
2022/07/19 05:51:19;;;;;;;10.80;8.85;;;23.30;78.90;;;;;;4974506;28;110865;-70
2022/07/19 05:53:46;;;;;;;11.25;7.38;;;23.50;78.10;;;;;;4973965;28;92464;-71
2022/07/19 05:56:13;;;;;;;10.18;7.93;;;23.70;76.80;;;;;;4974102;28;92460;-71
2022/07/19 05:58:40;;;;;;;9.65;7.40;;;23.80;75.60;;;;;;4975093;28;93322;-71
2022/07/19 06:01:19;;;;;;;10.02;8.68;;;24.00;75.00;;;;;;4990861;28;93056;-71
2022/07/19 06:03:52;;;;;;;12.63;7.40;;;24.20;74.60;;;;;;4975204;28;92634;-71
2022/07/19 06:06:30;;;;;;;13.20;8.30;;;24.30;73.40;;;;;;4958729;28;92318;-70
2022/07/19 06:08:58;;;;;;;12.35;7.38;;;24.40;72.50;;;;;;4975507;28;93301;-71
2022/07/19 06:11:26;;;;;;;11.05;7.80;;;24.50;72.20;;;;;;4975052;28;93132;-71
2022/07/19 06:13:53;;;;;;;9.10;6.72;;;24.70;71.70;;;;;;4973018;28;94913;-71
2022/07/19 06:16:20;;;;;;;11.15;6.65;;;24.90;71.30;;;;;;4973578;28;92533;-71
2022/07/19 06:18:48;;;;;;;15.43;7.72;;;24.90;71.10;;;;;;4975226;28;93253;-71
2022/07/19 06:21:18;;;;;;;9.80;8.23;;;25.00;70.80;;;;;;4975301;28;93086;-71
2022/07/19 06:23:46;;;;;;;10.25;7.05;;;25.10;70.20;;;;;;4975469;28;92376;-71
2022/07/19 06:26:14;;;;;;;10.50;7.65;;;25.10;69.70;;;;;;4957522;28;92834;-71
2022/07/19 06:28:41;;;;;;;11.40;7.93;;;25.10;69.60;;;;;;4974817;28;102667;-71
2022/07/19 06:31:12;;;;;;;9.57;7.65;;;25.20;69.20;;;;;;4975494;28;92959;-71
2022/07/19 06:33:44;;;;;;;10.98;7.72;;;25.20;68.60;;;;;;4978629;28;92618;-71
2022/07/19 06:36:12;;;;;;;12.68;7.68;;;25.30;68.20;;;;;;4978697;28;92381;-71
2022/07/19 06:38:39;;;;;;;10.20;7.80;;;25.30;68.40;;;;;;4992495;28;95686;-71
2022/07/19 06:41:06;;;;;;;12.02;6.43;;;25.50;68.50;;;;;;4976989;28;95423;-71
2022/07/19 06:43:34;;;;;;;15.13;8.73;;;25.60;68.00;;;;;;4978442;28;92479;-71
2022/07/19 06:46:01;;;;;;;9.88;6.55;;;25.80;68.00;;;;;;4977162;28;92676;-70
2022/07/19 06:48:28;;;;;;;13.07;8.48;;;25.90;67.50;;;;;;4976916;28;93295;-71
2022/07/19 06:50:55;;;;;;;10.75;7.10;;;26.10;67.70;;;;;;4993639;28;92919;-70
2022/07/19 06:53:22;;;;;;;10.63;6.88;;;26.20;68.00;;;;;;4978354;28;92437;-70
2022/07/19 06:55:49;;;;;;;10.57;7.82;;;26.30;67.50;;;;;;4978829;28;92111;-70
2022/07/19 06:58:29;;;;;;;12.00;8.30;;;26.40;67.00;;;;;;4993273;28;93185;-71
2022/07/19 07:00:56;;;;;;;10.32;7.78;;;26.50;66.80;;;;;;4976846;28;94253;-71
2022/07/19 07:03:24;;;;;;;11.43;7.03;;;26.50;66.80;;;;;;4975282;28;94889;-71
2022/07/19 07:05:51;;;;;;;9.35;7.38;;;26.60;66.80;;;;;;4978217;28;92483;-71
2022/07/19 07:08:18;;;;;;;12.10;7.93;;;26.70;67.30;;;;;;4977781;28;93281;-71
2022/07/19 07:10:45;;;;;;;8.68;7.53;;;26.80;66.50;;;;;;4976707;28;93337;-71
2022/07/19 07:13:12;;;;;;;8.50;6.93;;;26.90;66.40;;;;;;4978122;28;92544;-71
2022/07/19 07:15:39;;;;;;;12.13;6.35;;;27.00;65.50;;;;;;4977928;28;92528;-71
2022/07/19 07:18:06;;;;;;;11.63;7.45;;;27.00;65.50;;;;;;4976738;28;92466;-71
2022/07/19 07:20:34;;;;;;;9.10;6.15;;;27.10;65.90;;;;;;4976316;28;94272;-71
2022/07/19 07:23:04;;;;;;;8.80;6.05;;;27.10;66.10;;;;;;4976226;28;92546;-71
2022/07/19 07:25:31;;;;;;;9.93;6.40;;;27.20;65.30;;;;;;4977882;28;92539;-71
2022/07/19 07:27:58;;;;;;;10.15;6.15;;;27.20;65.60;;;;;;4976415;28;95663;-71
2022/07/19 07:30:26;;;;;;;9.13;6.70;;;27.20;65.00;;;;;;4977443;28;95415;-71
2022/07/19 07:32:52;;;;;;;9.60;6.57;;;27.30;64.90;;;;;;4977715;28;92440;-71
2022/07/19 07:35:20;;;;;;;7.35;6.60;;;27.30;64.50;;;;;;4976025;28;92464;-71
2022/07/19 07:37:52;;;;;;;12.47;6.80;;;27.30;64.80;;;;;;4977713;28;93064;-71
2022/07/19 07:40:19;;;;;;;10.65;5.70;;;27.40;64.80;;;;;;4976247;28;93098;-71
2022/07/19 07:42:46;;;;;;;16.08;7.28;;;27.50;64.90;;;;;;4977566;28;92372;-71
2022/07/19 07:45:14;;;;;;;10.48;5.88;;;27.60;65.20;;;;;;4976560;28;91718;-71
2022/07/19 07:48:06;;;;;;;9.65;6.20;;;27.70;65.30;;;;;;4953733;28;96030;-71
2022/07/19 07:50:33;;;;;;;7.60;6.22;;;27.70;65.20;;;;;;4977008;28;103846;-71
2022/07/19 07:53:00;;;;;;;10.63;6.43;;;27.80;65.10;;;;;;4976271;28;94828;-71
2022/07/19 07:55:27;;;;;;;10.32;4.95;;;27.90;64.80;;;;;;4977191;28;93030;-71
2022/07/19 07:57:56;;;;;;;7.35;5.88;;;28.00;64.40;;;;;;4975991;28;93321;-71
2022/07/19 08:00:23;;;;;;;7.55;5.28;;;28.10;64.40;;;;;;4976667;28;92999;-71
2022/07/19 08:02:50;;;;;;;8.02;7.03;;;28.20;64.20;;;;;;4976792;28;93018;-71
2022/07/19 08:05:21;;;;;;;6.50;5.72;;;28.40;64.20;;;;;;4975847;28;92594;-71
2022/07/19 08:07:49;;;;;;;10.68;6.45;;;28.70;64.00;;;;;;4977298;28;93217;-71
2022/07/19 08:10:19;;;;;;;7.35;6.45;;;29.40;63.50;;;;;;4977071;28;94151;-71
2022/07/19 08:12:46;;;;;;;6.28;5.38;;;30.40;62.00;;;;;;4976921;28;92361;-71
2022/07/19 08:15:13;;;;;;;5.72;5.03;;;31.40;59.60;;;;;;4975565;28;92554;-72
2022/07/19 08:17:40;;;;;;;7.40;6.65;;;32.40;58.30;;;;;;4975361;28;94929;-72
2022/07/19 08:20:09;;;;;;;8.23;6.25;;;33.50;57.40;;;;;;4976852;28;95256;-72
2022/07/19 08:22:37;;;;;;;7.22;6.53;;;34.50;54.60;;;;;;4976823;28;92372;-72
2022/07/19 08:25:04;;;;;;;6.60;5.90;;;35.30;52.70;;;;;;4992246;28;92432;-72
2022/07/19 08:27:33;;;;;;;5.63;4.80;;;36.20;50.10;;;;;;4991295;28;104731;-72
2022/07/19 08:30:00;;;;;;;6.65;5.38;;;36.90;49.30;;;;;;4975140;28;94045;-72
2022/07/19 08:32:34;;;;;;;7.57;4.97;;;37.60;47.60;;;;;;4977215;28;92929;-72
2022/07/19 08:35:01;;;;;;;6.97;5.05;;;38.20;46.60;;;;;;4977193;28;91632;-72
2022/07/19 08:37:28;;;;;;;6.38;5.45;;;38.90;45.70;;;;;;4976333;28;93198;-72
2022/07/19 08:39:55;;;;;;;7.53;4.55;;;39.40;43.40;;;;;;4976478;28;93013;-72
2022/07/19 08:42:22;;;;;;;6.70;5.95;;;39.80;43.10;;;;;;4990883;28;95634;-72
2022/07/19 08:44:51;;;;;;;8.85;6.25;;;40.30;41.70;;;;;;4976529;28;92499;-72
2022/07/19 08:47:19;;;;;;;7.07;6.45;;;40.80;41.20;;;;;;4975111;28;96185;-72
2022/07/19 08:49:47;;;;;;;6.10;5.18;;;41.10;40.50;;;;;;4976222;28;93024;-72
2022/07/19 08:52:16;;;;;;;7.53;4.65;;;41.30;39.60;;;;;;4976712;28;92429;-71
2022/07/19 08:54:42;;;;;;;5.78;5.00;;;41.40;38.70;;;;;;4975727;28;92489;-72
2022/07/19 08:59:55;;;;;;;7.10;6.03;;;41.80;38.20;;;;;;4975199;28;93965;-72
2022/07/19 09:02:22;;;;;;;7.25;4.20;;;41.90;38.00;;;;;;4976337;28;92426;-72
2022/07/19 09:05:05;;;;;;;6.55;4.70;;;42.10;37.30;;;;;;4974828;28;92984;-72
2022/07/19 09:07:31;;;;;;;5.57;4.00;;;42.50;36.30;;;;;;4974739;28;95570;-72
2022/07/19 09:10:17;;;;;;;5.22;4.22;;;42.00;35.90;;;;;;4991499;28;95370;-71
2022/07/19 09:13:00;;;;;;;6.60;4.70;;;41.90;36.30;;;;;;4976340;28;92469;-72
2022/07/19 09:15:43;;;;;;;6.03;4.80;;;41.50;36.90;;;;;;4975169;28;92575;-72
2022/07/19 09:18:22;;;;;;;4.75;3.97;;;40.80;36.70;;;;;;4976135;28;93109;-72
2022/07/19 09:20:51;;;;;;;4.10;3.08;;;40.10;37.50;;;;;;4974255;28;96692;-72
2022/07/19 09:23:18;;;;;;;4.05;3.50;;;39.40;37.90;;;;;;4976204;28;92484;-71
2022/07/19 09:25:49;;;;;;;5.20;4.70;;;38.90;38.20;;;;;;4976338;28;92596;-72
2022/07/19 09:28:18;;;;;;;6.80;3.80;;;38.40;39.40;;;;;;4974779;28;93241;-72
2022/07/19 09:30:49;;;;;;;3.90;3.35;;;37.90;40.20;;;;;;4973517;28;111643;-72
2022/07/19 09:33:20;;;;;;;4.07;3.67;;;37.50;40.80;;;;;;4975054;28;94739;-71
2022/07/19 09:35:49;;;;;;;4.93;3.08;;;37.20;40.70;;;;;;4976139;28;92420;-71
2022/07/19 09:38:33;;;;;;;4.15;3.70;;;36.80;40.00;;;;;;4975680;28;93324;-71
2022/07/19 09:41:11;;;;;;;3.72;3.20;;;36.50;39.90;;;;;;4975798;28;92947;-71
2022/07/19 09:43:58;;;;;;;4.00;3.33;;;36.20;40.30;;;;;;4975654;28;92412;-72
2022/07/19 09:46:34;;;;;;;5.57;3.42;;;36.00;40.10;;;;;;4974530;28;92530;-72
2022/07/19 09:49:12;;;;;;;4.68;3.35;;;35.70;40.70;;;;;;4975613;28;94188;-72
2022/07/19 09:51:50;;;;;;;4.60;3.90;;;35.60;40.60;;;;;;4975906;28;93049;-72
2022/07/19 09:54:21;;;;;;;6.30;3.55;;;35.30;40.90;;;;;;4974824;28;92530;-72
2022/07/19 09:56:50;;;;;;;3.55;2.60;;;35.20;41.10;;;;;;4974314;28;92550;-72
2022/07/19 09:59:19;;;;;;;4.40;3.13;;;35.10;41.20;;;;;;4972810;28;95724;-72
2022/07/19 10:01:48;;;;;;;3.90;3.25;;;35.00;41.70;;;;;;4973377;28;111177;-71
2022/07/19 10:04:21;;;;;;;4.85;3.05;;;35.00;42.30;;;;;;4975343;28;92477;-72
2022/07/19 10:06:50;;;;;;;4.30;3.90;;;34.90;40.70;;;;;;4974734;28;92691;-72
2022/07/19 10:09:19;;;;;;;6.20;3.05;;;34.90;41.10;;;;;;4977440;28;95738;-72
2022/07/19 10:11:52;;;;;;;3.67;2.67;;;34.90;41.10;;;;;;4977645;28;93067;-72
2022/07/19 10:14:19;;;;;;;3.42;2.47;;;34.80;40.60;;;;;;4979144;28;92378;-72
2022/07/19 10:17:10;;;;;;;4.63;3.85;;;34.80;40.50;;;;;;4994477;28;91805;-72
2022/07/19 10:19:40;;;;;;;4.57;2.90;;;34.80;41.30;;;;;;4978918;28;93196;-72
2022/07/19 10:22:12;;;;;;;3.15;2.78;;;34.80;41.60;;;;;;4979020;28;93073;-72
2022/07/19 10:24:53;;;;;;;5.55;2.80;;;34.80;40.80;;;;;;4960013;28;94879;-72
2022/07/19 10:27:26;;;;;;;4.25;3.85;;;34.80;40.00;;;;;;4978962;28;92346;-72
2022/07/19 10:30:12;;;;;;;3.47;2.88;;;34.80;40.80;;;;;;4977121;28;93322;-72
2022/07/19 10:32:43;;;;;;;3.70;3.00;;;34.80;40.30;;;;;;4978407;28;93064;-72
2022/07/19 10:35:27;;;;;;;9.20;3.08;;;34.80;41.00;;;;;;4977297;28;92491;-72
2022/07/19 10:38:00;;;;;;;5.35;3.47;;;34.90;40.30;;;;;;4977327;28;92462;-72
2022/07/19 10:40:43;;;;;;;3.63;2.92;;;34.90;40.60;;;;;;4978267;28;93258;-72
2022/07/19 10:43:10;;;;;;;;;;;35.00;40.20;;;;;;4977512;28;96533;-72
2022/07/19 10:45:39;;;;;;;4.63;3.55;;;34.90;40.50;;;;;;4979854;28;92363;-72
2022/07/19 10:48:16;;;;;;;4.20;3.90;;;34.90;39.80;;;;;;4978403;28;92801;-72
2022/07/19 10:50:51;;;;;;;3.20;3.00;;;35.10;39.40;;;;;;4975600;28;95726;-72
2022/07/19 10:53:40;;;;;;;3.25;3.05;;;35.10;39.10;;;;;;4978240;28;95291;-72
2022/07/19 10:56:21;;;;;;;2.90;2.55;;;35.20;39.00;;;;;;4978283;28;92471;-73
2022/07/19 10:58:49;;;;;;;4.68;2.20;;;35.20;39.80;;;;;;4976556;28;92482;-72
2022/07/19 11:01:18;;;;;;;5.07;2.88;;;35.30;38.90;;;;;;4976653;28;94849;-72
2022/07/19 11:03:47;;;;;;;5.80;3.28;;;35.40;39.40;;;;;;4975887;28;92982;-72
2022/07/19 11:06:26;;;;;;;3.47;2.55;;;35.50;39.00;;;;;;4959450;28;92471;-72
2022/07/19 11:08:58;;;;;;;3.70;3.25;;;35.60;40.20;;;;;;4977654;28;91662;-72
2022/07/19 11:11:29;;;;;;;5.03;2.70;;;35.60;39.60;;;;;;4976976;28;93157;-72
2022/07/19 11:13:57;;;;;;;7.63;3.45;;;35.60;39.40;;;;;;4974993;28;93990;-72
2022/07/19 11:16:26;;;;;;;3.60;3.25;;;35.70;40.10;;;;;;4975778;28;95372;-72
2022/07/19 11:19:07;;;;;;;3.00;2.70;;;35.80;39.50;;;;;;4976391;28;92415;-72
2022/07/19 11:21:36;;;;;;;3.15;2.88;;;35.90;38.70;;;;;;4976812;28;93347;-72
2022/07/19 11:24:05;;;;;;;4.88;2.35;;;35.80;38.80;;;;;;4976428;28;93000;-72
2022/07/19 11:26:39;;;;;;;3.28;2.28;;;35.90;38.60;;;;;;4975243;28;92535;-72
2022/07/19 11:29:13;;;;;;;2.80;2.33;;;35.90;38.80;;;;;;4976564;28;92423;-72
2022/07/19 11:31:47;;;;;;;5.40;3.95;;;36.00;39.20;;;;;;4974887;28;103786;-72
2022/07/19 11:34:14;;;;;;;4.10;2.28;;;36.10;39.20;;;;;;4976836;28;93212;-72
2022/07/19 11:36:41;;;;;;;3.72;3.33;;;36.10;38.10;;;;;;4959246;28;92495;-72
2022/07/19 11:39:08;;;;;;;3.40;2.40;;;36.10;37.80;;;;;;4976347;28;92434;-72
2022/07/19 11:41:35;;;;;;;3.65;2.58;;;36.20;37.80;;;;;;4973391;28;98065;-71
2022/07/19 11:44:05;;;;;;;2.30;2.10;;;36.20;37.20;;;;;;4974678;28;95332;-72
2022/07/19 11:46:37;;;;;;;2.10;1.95;;;36.30;37.10;;;;;;4991943;28;92479;-72
2022/07/19 11:49:06;;;;;;;4.18;3.08;;;36.30;35.80;;;;;;4974678;28;93105;-72
2022/07/19 11:51:33;;;;;;;3.55;2.80;;;36.30;35.90;;;;;;4974878;28;93194;-72
2022/07/19 11:54:02;;;;;;;4.22;2.67;;;36.30;36.40;;;;;;4975613;28;92889;-72
2022/07/19 11:56:31;;;;;;;3.35;2.70;;;36.40;36.10;;;;;;4976301;28;92341;-72
2022/07/19 11:59:04;;;;;;;3.72;3.38;;;36.40;35.90;;;;;;4974960;28;91791;-72
2022/07/19 12:01:34;;;;;;;3.03;2.50;;;36.40;35.30;;;;;;4976024;28;93291;-72
2022/07/19 12:04:04;;;;;;;4.22;2.70;;;36.50;35.50;;;;;;4934640;28;1184917;-72
2022/07/19 12:06:46;;;;;;;3.40;2.70;;;36.50;36.10;;;;;;4975734;28;94857;-72
2022/07/19 12:09:32;;;;;;;2.27;2.10;;;36.60;35.40;;;;;;4975758;28;92561;-72
2022/07/19 12:12:11;;;;;;;3.58;2.50;;;36.60;36.00;;;;;;4977033;28;93492;-72
2022/07/19 12:14:40;;;;;;;3.70;3.13;;;36.60;36.40;;;;;;4976909;28;92928;-72
2022/07/19 12:17:18;;;;;;;2.83;2.50;;;36.70;36.10;;;;;;4975565;28;92468;-72
2022/07/19 12:19:54;;;;;;;3.28;2.42;;;36.80;36.10;;;;;;4977191;28;92451;-72
2022/07/19 12:22:35;;;;;;;3.38;3.17;;;36.90;36.30;;;;;;4976985;28;94034;-72
2022/07/19 12:25:04;;;;;;;3.97;2.92;;;37.00;36.30;;;;;;4992461;28;92972;-72
2022/07/19 12:27:32;;;;;;;4.53;2.58;;;37.00;36.60;;;;;;4975416;28;92553;-72
2022/07/19 12:29:59;;;;;;;3.95;2.90;;;37.10;36.40;;;;;;4975854;28;92540;-72
2022/07/19 12:32:30;;;;;;;4.15;2.90;;;37.10;35.20;;;;;;4975011;28;108662;-72
2022/07/19 12:35:13;;;;;;;3.20;2.42;;;37.10;35.30;;;;;;4976697;28;94379;-72
2022/07/19 12:37:42;;;;;;;3.78;3.10;;;37.10;35.30;;;;;;4975379;28;92467;-72
2022/07/19 12:40:09;;;;;;;3.83;2.63;;;37.20;35.20;;;;;;4976466;28;92592;-72
2022/07/19 12:42:41;;;;;;;4.05;3.20;;;37.20;35.40;;;;;;4976084;28;105906;-72
2022/07/19 12:45:11;;;;;;;4.67;2.60;;;37.30;35.20;;;;;;4975119;28;93099;-72
2022/07/19 12:47:38;;;;;;;3.72;3.42;;;37.40;35.80;;;;;;4959310;28;92808;-72
2022/07/19 12:50:07;;;;;;;3.95;3.28;;;37.40;35.80;;;;;;4976980;28;91700;-72
2022/07/19 12:52:38;;;;;;;3.17;2.65;;;37.50;36.20;;;;;;4975062;28;95661;-73
2022/07/19 12:55:06;;;;;;;4.22;2.15;;;37.50;35.90;;;;;;4975079;28;93516;-73